sensor_id;sensor_type;location;lat;lon;timestamp;temperature;humidity
33492;DHT22;20010;51.488;7.232;2022-09-03T00:01:22;17.80;80.30
33492;DHT22;20010;51.488;7.232;2022-09-03T00:04:01;17.70;80.40
33492;DHT22;20010;51.488;7.232;2022-09-03T00:06:47;17.70;80.60
33492;DHT22;20010;51.488;7.232;2022-09-03T00:09:33;17.60;80.60
33492;DHT22;20010;51.488;7.232;2022-09-03T00:12:17;17.60;80.60
33492;DHT22;20010;51.488;7.232;2022-09-03T00:15:13;17.60;80.70
33492;DHT22;20010;51.488;7.232;2022-09-03T00:20:33;17.60;81.10
33492;DHT22;20010;51.488;7.232;2022-09-03T00:23:15;17.50;80.90
33492;DHT22;20010;51.488;7.232;2022-09-03T00:29:00;17.60;81.30
33492;DHT22;20010;51.488;7.232;2022-09-03T00:31:52;17.60;80.90
33492;DHT22;20010;51.488;7.232;2022-09-03T00:34:39;17.60;81.50
33492;DHT22;20010;51.488;7.232;2022-09-03T00:37:10;17.50;81.30
33492;DHT22;20010;51.488;7.232;2022-09-03T00:39:44;17.50;81.60
33492;DHT22;20010;51.488;7.232;2022-09-03T00:45:16;17.40;81.60
33492;DHT22;20010;51.488;7.232;2022-09-03T00:48:23;17.50;81.60
33492;DHT22;20010;51.488;7.232;2022-09-03T00:51:16;17.40;81.40
33492;DHT22;20010;51.488;7.232;2022-09-03T00:54:21;17.40;81.80
33492;DHT22;20010;51.488;7.232;2022-09-03T00:57:29;17.40;81.60
33492;DHT22;20010;51.488;7.232;2022-09-03T01:00:17;17.40;82.20
33492;DHT22;20010;51.488;7.232;2022-09-03T01:05:44;17.30;82.10
33492;DHT22;20010;51.488;7.232;2022-09-03T01:11:50;17.30;82.40
33492;DHT22;20010;51.488;7.232;2022-09-03T01:14:48;17.30;82.50
33492;DHT22;20010;51.488;7.232;2022-09-03T01:51:27;17.00;83.40
33492;DHT22;20010;51.488;7.232;2022-09-03T01:54:14;17.00;84.10
33492;DHT22;20010;51.488;7.232;2022-09-03T02:00:11;17.00;84.00
33492;DHT22;20010;51.488;7.232;2022-09-03T02:02:44;17.00;83.80
33492;DHT22;20010;51.488;7.232;2022-09-03T02:05:17;17.00;83.70
33492;DHT22;20010;51.488;7.232;2022-09-03T02:08:11;17.00;83.90
33492;DHT22;20010;51.488;7.232;2022-09-03T02:10:51;17.00;84.10
33492;DHT22;20010;51.488;7.232;2022-09-03T02:15:52;17.00;84.10
33492;DHT22;20010;51.488;7.232;2022-09-03T02:18:25;17.00;84.10
33492;DHT22;20010;51.488;7.232;2022-09-03T02:20:59;17.00;84.10
33492;DHT22;20010;51.488;7.232;2022-09-03T02:23:32;17.00;84.20
33492;DHT22;20010;51.488;7.232;2022-09-03T02:26:04;16.90;84.40
33492;DHT22;20010;51.488;7.232;2022-09-03T02:28:37;17.00;84.00
33492;DHT22;20010;51.488;7.232;2022-09-03T02:31:10;17.00;84.00
33492;DHT22;20010;51.488;7.232;2022-09-03T02:33:40;17.00;84.00
33492;DHT22;20010;51.488;7.232;2022-09-03T02:36:12;17.00;84.50
33492;DHT22;20010;51.488;7.232;2022-09-03T02:38:43;16.90;84.40
33492;DHT22;20010;51.488;7.232;2022-09-03T02:41:14;16.90;84.70
33492;DHT22;20010;51.488;7.232;2022-09-03T02:44:16;16.90;84.80
33492;DHT22;20010;51.488;7.232;2022-09-03T02:47:02;16.90;84.60
33492;DHT22;20010;51.488;7.232;2022-09-03T02:49:39;16.90;84.80
33492;DHT22;20010;51.488;7.232;2022-09-03T02:52:14;16.90;84.70
33492;DHT22;20010;51.488;7.232;2022-09-03T02:54:43;16.90;84.80
33492;DHT22;20010;51.488;7.232;2022-09-03T02:57:15;16.90;85.20
33492;DHT22;20010;51.488;7.232;2022-09-03T02:59:55;16.90;85.30
33492;DHT22;20010;51.488;7.232;2022-09-03T03:02:24;16.90;85.20
33492;DHT22;20010;51.488;7.232;2022-09-03T03:04:57;16.80;85.60
33492;DHT22;20010;51.488;7.232;2022-09-03T03:07:28;16.80;85.10
33492;DHT22;20010;51.488;7.232;2022-09-03T03:10:00;16.80;85.30
33492;DHT22;20010;51.488;7.232;2022-09-03T03:12:37;16.80;85.50
33492;DHT22;20010;51.488;7.232;2022-09-03T03:15:11;16.80;85.60
33492;DHT22;20010;51.488;7.232;2022-09-03T03:17:50;16.80;85.60
33492;DHT22;20010;51.488;7.232;2022-09-03T03:20:22;16.80;85.90
33492;DHT22;20010;51.488;7.232;2022-09-03T03:22:50;16.70;85.80
33492;DHT22;20010;51.488;7.232;2022-09-03T03:25:17;16.80;85.80
33492;DHT22;20010;51.488;7.232;2022-09-03T03:27:49;16.70;86.00
33492;DHT22;20010;51.488;7.232;2022-09-03T03:30:20;16.70;86.10
33492;DHT22;20010;51.488;7.232;2022-09-03T03:32:53;16.70;86.30
33492;DHT22;20010;51.488;7.232;2022-09-03T03:35:22;16.70;86.30
33492;DHT22;20010;51.488;7.232;2022-09-03T03:37:51;16.60;86.60
33492;DHT22;20010;51.488;7.232;2022-09-03T03:40:18;16.60;86.80
33492;DHT22;20010;51.488;7.232;2022-09-03T03:42:46;16.50;87.20
33492;DHT22;20010;51.488;7.232;2022-09-03T03:45:16;16.50;87.30
33492;DHT22;20010;51.488;7.232;2022-09-03T03:47:44;16.50;87.40
33492;DHT22;20010;51.488;7.232;2022-09-03T03:50:13;16.40;88.00
33492;DHT22;20010;51.488;7.232;2022-09-03T03:52:40;16.40;87.80
33492;DHT22;20010;51.488;7.232;2022-09-03T03:55:09;16.40;88.30
33492;DHT22;20010;51.488;7.232;2022-09-03T03:57:46;16.40;87.90
33492;DHT22;20010;51.488;7.232;2022-09-03T04:00:14;16.40;87.80
33492;DHT22;20010;51.488;7.232;2022-09-03T04:02:42;16.40;88.10
33492;DHT22;20010;51.488;7.232;2022-09-03T04:05:10;16.40;88.30
33492;DHT22;20010;51.488;7.232;2022-09-03T04:07:37;16.40;88.60
33492;DHT22;20010;51.488;7.232;2022-09-03T04:10:05;16.40;88.50
33492;DHT22;20010;51.488;7.232;2022-09-03T04:12:34;16.30;88.80
33492;DHT22;20010;51.488;7.232;2022-09-03T04:15:02;16.30;88.90
33492;DHT22;20010;51.488;7.232;2022-09-03T04:17:31;16.30;89.10
33492;DHT22;20010;51.488;7.232;2022-09-03T04:20:02;16.30;89.00
33492;DHT22;20010;51.488;7.232;2022-09-03T04:22:34;16.30;89.00
33492;DHT22;20010;51.488;7.232;2022-09-03T04:25:03;16.30;89.90
33492;DHT22;20010;51.488;7.232;2022-09-03T04:27:31;16.30;89.50
33492;DHT22;20010;51.488;7.232;2022-09-03T04:29:59;16.30;89.80
33492;DHT22;20010;51.488;7.232;2022-09-03T04:32:30;16.20;90.00
33492;DHT22;20010;51.488;7.232;2022-09-03T04:35:25;16.20;90.10
33492;DHT22;20010;51.488;7.232;2022-09-03T04:38:02;16.20;90.30
33492;DHT22;20010;51.488;7.232;2022-09-03T04:40:32;16.20;90.20
33492;DHT22;20010;51.488;7.232;2022-09-03T04:43:07;16.20;90.40
33492;DHT22;20010;51.488;7.232;2022-09-03T04:45:34;16.20;90.60
33492;DHT22;20010;51.488;7.232;2022-09-03T04:48:07;16.10;90.30
33492;DHT22;20010;51.488;7.232;2022-09-03T04:50:40;16.10;90.70
33492;DHT22;20010;51.488;7.232;2022-09-03T04:53:08;16.10;90.60
33492;DHT22;20010;51.488;7.232;2022-09-03T04:55:36;16.10;91.00
33492;DHT22;20010;51.488;7.232;2022-09-03T04:58:04;16.10;91.00
33492;DHT22;20010;51.488;7.232;2022-09-03T05:00:35;16.00;91.10
33492;DHT22;20010;51.488;7.232;2022-09-03T05:03:07;15.90;91.20
33492;DHT22;20010;51.488;7.232;2022-09-03T05:05:35;15.90;91.30
33492;DHT22;20010;51.488;7.232;2022-09-03T05:08:03;15.90;91.20
33492;DHT22;20010;51.488;7.232;2022-09-03T05:10:33;15.90;91.40
33492;DHT22;20010;51.488;7.232;2022-09-03T05:13:08;15.80;91.80
33492;DHT22;20010;51.488;7.232;2022-09-03T05:15:36;15.80;91.70
33492;DHT22;20010;51.488;7.232;2022-09-03T05:18:07;15.80;92.10
33492;DHT22;20010;51.488;7.232;2022-09-03T05:20:36;15.70;91.90
33492;DHT22;20010;51.488;7.232;2022-09-03T05:23:04;15.70;92.00
33492;DHT22;20010;51.488;7.232;2022-09-03T05:25:33;15.70;92.20
33492;DHT22;20010;51.488;7.232;2022-09-03T05:28:04;15.70;92.20
33492;DHT22;20010;51.488;7.232;2022-09-03T05:30:32;15.70;92.30
33492;DHT22;20010;51.488;7.232;2022-09-03T05:33:04;15.70;92.30
33492;DHT22;20010;51.488;7.232;2022-09-03T05:35:34;15.70;92.40
33492;DHT22;20010;51.488;7.232;2022-09-03T05:38:05;15.60;92.40
33492;DHT22;20010;51.488;7.232;2022-09-03T05:40:38;15.60;92.50
33492;DHT22;20010;51.488;7.232;2022-09-03T05:43:08;15.70;92.60
33492;DHT22;20010;51.488;7.232;2022-09-03T05:45:37;15.70;92.60
33492;DHT22;20010;51.488;7.232;2022-09-03T05:48:06;15.70;92.60
33492;DHT22;20010;51.488;7.232;2022-09-03T05:50:43;15.70;92.70
33492;DHT22;20010;51.488;7.232;2022-09-03T05:53:12;15.70;92.70
33492;DHT22;20010;51.488;7.232;2022-09-03T05:55:42;15.70;92.70
33492;DHT22;20010;51.488;7.232;2022-09-03T05:58:10;15.70;92.90
33492;DHT22;20010;51.488;7.232;2022-09-03T06:00:39;15.80;93.00
33492;DHT22;20010;51.488;7.232;2022-09-03T06:03:07;15.80;93.00
33492;DHT22;20010;51.488;7.232;2022-09-03T06:05:36;15.80;93.30
33492;DHT22;20010;51.488;7.232;2022-09-03T06:08:03;15.80;93.20
33492;DHT22;20010;51.488;7.232;2022-09-03T06:10:31;15.80;93.10
33492;DHT22;20010;51.488;7.232;2022-09-03T06:13:06;15.80;93.30
33492;DHT22;20010;51.488;7.232;2022-09-03T06:15:38;15.90;93.10
33492;DHT22;20010;51.488;7.232;2022-09-03T06:18:07;15.90;93.20
33492;DHT22;20010;51.488;7.232;2022-09-03T06:20:39;16.00;93.20
33492;DHT22;20010;51.488;7.232;2022-09-03T06:23:13;16.00;93.10
33492;DHT22;20010;51.488;7.232;2022-09-03T06:25:41;16.00;93.40
33492;DHT22;20010;51.488;7.232;2022-09-03T06:28:09;16.10;93.40
33492;DHT22;20010;51.488;7.232;2022-09-03T06:30:37;16.10;93.30
33492;DHT22;20010;51.488;7.232;2022-09-03T06:33:06;16.10;93.40
33492;DHT22;20010;51.488;7.232;2022-09-03T06:35:34;16.10;93.40
33492;DHT22;20010;51.488;7.232;2022-09-03T06:38:08;16.10;93.50
33492;DHT22;20010;51.488;7.232;2022-09-03T06:40:42;16.20;93.40
33492;DHT22;20010;51.488;7.232;2022-09-03T06:43:09;16.30;93.40
33492;DHT22;20010;51.488;7.232;2022-09-03T06:45:40;16.40;93.60
33492;DHT22;20010;51.488;7.232;2022-09-03T06:48:09;16.40;93.50
33492;DHT22;20010;51.488;7.232;2022-09-03T06:50:37;16.40;93.40
33492;DHT22;20010;51.488;7.232;2022-09-03T06:53:06;16.50;93.50
33492;DHT22;20010;51.488;7.232;2022-09-03T06:55:34;16.50;93.60
33492;DHT22;20010;51.488;7.232;2022-09-03T06:58:07;16.60;93.50
33492;DHT22;20010;51.488;7.232;2022-09-03T07:00:35;16.70;93.10
33492;DHT22;20010;51.488;7.232;2022-09-03T07:03:02;16.80;93.10
33492;DHT22;20010;51.488;7.232;2022-09-03T07:05:32;16.80;93.10
33492;DHT22;20010;51.488;7.232;2022-09-03T07:08:01;16.80;93.00
33492;DHT22;20010;51.488;7.232;2022-09-03T07:10:49;16.90;92.80
33492;DHT22;20010;51.488;7.232;2022-09-03T07:13:18;16.90;92.60
33492;DHT22;20010;51.488;7.232;2022-09-03T07:15:47;17.00;93.00
33492;DHT22;20010;51.488;7.232;2022-09-03T07:18:15;17.00;92.90
33492;DHT22;20010;51.488;7.232;2022-09-03T07:20:44;17.10;93.10
33492;DHT22;20010;51.488;7.232;2022-09-03T07:23:12;17.10;93.00
33492;DHT22;20010;51.488;7.232;2022-09-03T07:25:42;17.20;93.00
33492;DHT22;20010;51.488;7.232;2022-09-03T07:28:12;17.30;92.90
33492;DHT22;20010;51.488;7.232;2022-09-03T07:30:39;17.40;93.00
33492;DHT22;20010;51.488;7.232;2022-09-03T07:33:09;17.50;93.00
33492;DHT22;20010;51.488;7.232;2022-09-03T07:35:39;17.60;92.80
33492;DHT22;20010;51.488;7.232;2022-09-03T07:38:19;17.60;92.70
33492;DHT22;20010;51.488;7.232;2022-09-03T07:40:57;17.70;92.60
33492;DHT22;20010;51.488;7.232;2022-09-03T07:43:32;17.70;92.50
33492;DHT22;20010;51.488;7.232;2022-09-03T07:46:03;17.90;92.40
33492;DHT22;20010;51.488;7.232;2022-09-03T07:48:53;18.00;92.40
33492;DHT22;20010;51.488;7.232;2022-09-03T07:51:24;18.20;92.10
33492;DHT22;20010;51.488;7.232;2022-09-03T07:54:02;18.30;91.90
33492;DHT22;20010;51.488;7.232;2022-09-03T07:56:34;18.40;91.90
33492;DHT22;20010;51.488;7.232;2022-09-03T07:59:04;18.40;91.60
33492;DHT22;20010;51.488;7.232;2022-09-03T08:01:32;18.60;91.50
33492;DHT22;20010;51.488;7.232;2022-09-03T08:04:06;18.60;91.30
33492;DHT22;20010;51.488;7.232;2022-09-03T08:06:37;18.70;91.20
33492;DHT22;20010;51.488;7.232;2022-09-03T08:09:09;18.90;91.20
33492;DHT22;20010;51.488;7.232;2022-09-03T08:11:41;19.00;91.20
33492;DHT22;20010;51.488;7.232;2022-09-03T08:14:12;19.10;90.80
33492;DHT22;20010;51.488;7.232;2022-09-03T08:16:44;19.20;90.60
33492;DHT22;20010;51.488;7.232;2022-09-03T08:19:15;19.20;90.70
33492;DHT22;20010;51.488;7.232;2022-09-03T08:22:04;19.30;91.00
33492;DHT22;20010;51.488;7.232;2022-09-03T08:24:35;19.50;90.90
33492;DHT22;20010;51.488;7.232;2022-09-03T08:27:02;19.60;90.80
33492;DHT22;20010;51.488;7.232;2022-09-03T08:29:35;19.60;90.70
33492;DHT22;20010;51.488;7.232;2022-09-03T08:32:22;19.60;91.00
33492;DHT22;20010;51.488;7.232;2022-09-03T08:34:49;19.70;90.70
33492;DHT22;20010;51.488;7.232;2022-09-03T08:37:18;19.70;90.50
33492;DHT22;20010;51.488;7.232;2022-09-03T08:39:49;19.80;90.70
33492;DHT22;20010;51.488;7.232;2022-09-03T08:44:56;20.00;90.70
33492;DHT22;20010;51.488;7.232;2022-09-03T08:47:53;20.00;90.50
33492;DHT22;20010;51.488;7.232;2022-09-03T08:50:36;20.10;90.70
33492;DHT22;20010;51.488;7.232;2022-09-03T08:55:48;20.40;89.70
33492;DHT22;20010;51.488;7.232;2022-09-03T08:58:22;20.60;89.60
33492;DHT22;20010;51.488;7.232;2022-09-03T09:05:11;20.90;89.10
33492;DHT22;20010;51.488;7.232;2022-09-03T09:10:40;21.20;86.50
33492;DHT22;20010;51.488;7.232;2022-09-03T09:15:50;21.40;86.40
33492;DHT22;20010;51.488;7.232;2022-09-03T09:19:02;21.50;85.60
33492;DHT22;20010;51.488;7.232;2022-09-03T09:21:41;21.60;85.50
33492;DHT22;20010;51.488;7.232;2022-09-03T09:24:21;21.70;84.90
33492;DHT22;20010;51.488;7.232;2022-09-03T09:26:59;21.80;85.00
33492;DHT22;20010;51.488;7.232;2022-09-03T09:29:39;22.00;84.70
33492;DHT22;20010;51.488;7.232;2022-09-03T09:32:08;22.20;83.70
33492;DHT22;20010;51.488;7.232;2022-09-03T09:34:38;22.30;83.50
33492;DHT22;20010;51.488;7.232;2022-09-03T09:37:13;22.40;83.10
33492;DHT22;20010;51.488;7.232;2022-09-03T09:39:57;22.40;82.60
33492;DHT22;20010;51.488;7.232;2022-09-03T09:42:26;22.60;82.40
33492;DHT22;20010;51.488;7.232;2022-09-03T09:45:08;22.60;81.30
33492;DHT22;20010;51.488;7.232;2022-09-03T09:47:38;22.70;81.10
33492;DHT22;20010;51.488;7.232;2022-09-03T09:50:19;22.80;81.60
33492;DHT22;20010;51.488;7.232;2022-09-03T09:53:03;22.90;81.10
33492;DHT22;20010;51.488;7.232;2022-09-03T09:55:52;23.00;80.90
33492;DHT22;20010;51.488;7.232;2022-09-03T09:58:25;22.90;80.90
33492;DHT22;20010;51.488;7.232;2022-09-03T10:03:55;23.10;81.30
33492;DHT22;20010;51.488;7.232;2022-09-03T10:06:29;23.20;80.60
33492;DHT22;20010;51.488;7.232;2022-09-03T10:09:20;23.30;80.80
33492;DHT22;20010;51.488;7.232;2022-09-03T10:14:46;23.60;79.20
33492;DHT22;20010;51.488;7.232;2022-09-03T10:20:32;23.50;79.20
33492;DHT22;20010;51.488;7.232;2022-09-03T10:23:22;23.50;79.10
33492;DHT22;20010;51.488;7.232;2022-09-03T10:26:03;23.60;79.20
33492;DHT22;20010;51.488;7.232;2022-09-03T10:28:44;23.80;78.90
33492;DHT22;20010;51.488;7.232;2022-09-03T10:37:43;24.30;77.60
33492;DHT22;20010;51.488;7.232;2022-09-03T10:40:15;24.40;77.50
33492;DHT22;20010;51.488;7.232;2022-09-03T10:43:22;24.40;76.70
33492;DHT22;20010;51.488;7.232;2022-09-03T10:46:24;24.60;76.90
33492;DHT22;20010;51.488;7.232;2022-09-03T10:51:49;24.60;76.00
33492;DHT22;20010;51.488;7.232;2022-09-03T11:00:53;24.30;76.80
33492;DHT22;20010;51.488;7.232;2022-09-03T11:03:47;24.30;75.30
33492;DHT22;20010;51.488;7.232;2022-09-03T11:06:29;24.30;76.00
33492;DHT22;20010;51.488;7.232;2022-09-03T11:09:27;24.50;75.80
33492;DHT22;20010;51.488;7.232;2022-09-03T11:12:03;24.70;74.90
33492;DHT22;20010;51.488;7.232;2022-09-03T11:14:52;24.80;75.40
33492;DHT22;20010;51.488;7.232;2022-09-03T11:17:45;24.90;75.50
33492;DHT22;20010;51.488;7.232;2022-09-03T11:22:46;25.20;75.30
33492;DHT22;20010;51.488;7.232;2022-09-03T11:25:20;25.40;74.20
33492;DHT22;20010;51.488;7.232;2022-09-03T11:28:25;25.50;73.70
33492;DHT22;20010;51.488;7.232;2022-09-03T11:34:10;25.90;72.90
33492;DHT22;20010;51.488;7.232;2022-09-03T11:36:51;25.80;71.50
33492;DHT22;20010;51.488;7.232;2022-09-03T11:39:51;25.50;72.20
33492;DHT22;20010;51.488;7.232;2022-09-03T11:42:35;25.50;72.30
33492;DHT22;20010;51.488;7.232;2022-09-03T11:48:01;25.80;71.50
33492;DHT22;20010;51.488;7.232;2022-09-03T11:50:32;26.10;71.40
33492;DHT22;20010;51.488;7.232;2022-09-03T11:55:52;26.20;70.40
33492;DHT22;20010;51.488;7.232;2022-09-03T11:58:40;26.30;71.20
33492;DHT22;20010;51.488;7.232;2022-09-03T12:01:12;26.50;70.60
33492;DHT22;20010;51.488;7.232;2022-09-03T12:03:55;26.70;69.40
33492;DHT22;20010;51.488;7.232;2022-09-03T12:15:44;26.50;70.30
33492;DHT22;20010;51.488;7.232;2022-09-03T12:18:39;26.70;69.40
33492;DHT22;20010;51.488;7.232;2022-09-03T12:21:11;26.60;68.70
33492;DHT22;20010;51.488;7.232;2022-09-03T12:23:50;26.60;69.30
33492;DHT22;20010;51.488;7.232;2022-09-03T12:26:25;26.50;68.40
33492;DHT22;20010;51.488;7.232;2022-09-03T12:29:00;26.30;69.80
33492;DHT22;20010;51.488;7.232;2022-09-03T12:31:44;26.50;69.40
33492;DHT22;20010;51.488;7.232;2022-09-03T12:34:15;26.40;70.10
33492;DHT22;20010;51.488;7.232;2022-09-03T12:36:50;26.60;69.80
33492;DHT22;20010;51.488;7.232;2022-09-03T12:39:27;26.30;69.70
33492;DHT22;20010;51.488;7.232;2022-09-03T12:42:22;26.70;70.70
33492;DHT22;20010;51.488;7.232;2022-09-03T12:44:51;26.90;69.80
33492;DHT22;20010;51.488;7.232;2022-09-03T12:47:22;26.90;70.50
33492;DHT22;20010;51.488;7.232;2022-09-03T12:50:14;27.10;70.20
33492;DHT22;20010;51.488;7.232;2022-09-03T12:53:00;27.00;69.40
33492;DHT22;20010;51.488;7.232;2022-09-03T12:56:01;27.00;69.50
33492;DHT22;20010;51.488;7.232;2022-09-03T12:58:33;27.30;69.90
33492;DHT22;20010;51.488;7.232;2022-09-03T13:01:20;27.50;68.80
33492;DHT22;20010;51.488;7.232;2022-09-03T13:04:07;27.30;69.40
33492;DHT22;20010;51.488;7.232;2022-09-03T13:06:41;27.00;70.20
33492;DHT22;20010;51.488;7.232;2022-09-03T13:09:19;26.80;70.70
33492;DHT22;20010;51.488;7.232;2022-09-03T13:11:51;26.70;70.60
33492;DHT22;20010;51.488;7.232;2022-09-03T13:14:26;26.50;72.10
33492;DHT22;20010;51.488;7.232;2022-09-03T13:17:06;26.20;72.20
33492;DHT22;20010;51.488;7.232;2022-09-03T13:25:07;26.10;74.70
33492;DHT22;20010;51.488;7.232;2022-09-03T13:33:39;26.60;72.20
33492;DHT22;20010;51.488;7.232;2022-09-03T13:36:26;26.20;73.90
33492;DHT22;20010;51.488;7.232;2022-09-03T13:39:04;26.10;74.60
33492;DHT22;20010;51.488;7.232;2022-09-03T13:41:55;25.90;74.80
33492;DHT22;20010;51.488;7.232;2022-09-03T13:50:06;26.40;73.80
33492;DHT22;20010;51.488;7.232;2022-09-03T13:53:03;26.10;74.70
33492;DHT22;20010;51.488;7.232;2022-09-03T13:55:40;25.80;75.60
33492;DHT22;20010;51.488;7.232;2022-09-03T13:58:27;25.70;76.00
33492;DHT22;20010;51.488;7.232;2022-09-03T14:03:49;25.70;77.70
33492;DHT22;20010;51.488;7.232;2022-09-03T14:06:58;25.90;76.60
33492;DHT22;20010;51.488;7.232;2022-09-03T14:09:47;26.30;75.80
33492;DHT22;20010;51.488;7.232;2022-09-03T14:12:43;26.40;75.80
33492;DHT22;20010;51.488;7.232;2022-09-03T14:15:26;26.20;75.10
33492;DHT22;20010;51.488;7.232;2022-09-03T14:18:45;26.20;76.10
33492;DHT22;20010;51.488;7.232;2022-09-03T14:21:52;26.60;76.70
33492;DHT22;20010;51.488;7.232;2022-09-03T14:24:43;27.50;74.70
33492;DHT22;20010;51.488;7.232;2022-09-03T14:27:26;28.00;73.40
33492;DHT22;20010;51.488;7.232;2022-09-03T14:30:06;28.80;71.90
33492;DHT22;20010;51.488;7.232;2022-09-03T14:33:15;28.80;70.50
33492;DHT22;20010;51.488;7.232;2022-09-03T14:42:06;29.10;70.50
33492;DHT22;20010;51.488;7.232;2022-09-03T15:08:53;27.10;73.30
33492;DHT22;20010;51.488;7.232;2022-09-03T15:11:30;27.00;73.80
33492;DHT22;20010;51.488;7.232;2022-09-03T15:14:13;26.90;74.30
33492;DHT22;20010;51.488;7.232;2022-09-03T15:16:59;26.70;74.50
33492;DHT22;20010;51.488;7.232;2022-09-03T15:19:50;26.50;74.10
33492;DHT22;20010;51.488;7.232;2022-09-03T15:25:30;26.30;75.00
33492;DHT22;20010;51.488;7.232;2022-09-03T15:37:07;26.40;74.90
33492;DHT22;20010;51.488;7.232;2022-09-03T15:39:44;26.50;75.10
33492;DHT22;20010;51.488;7.232;2022-09-03T15:42:27;26.70;74.40
33492;DHT22;20010;51.488;7.232;2022-09-03T15:45:33;26.80;73.90
33492;DHT22;20010;51.488;7.232;2022-09-03T15:51:16;26.90;74.80
33492;DHT22;20010;51.488;7.232;2022-09-03T15:57:01;26.80;73.20
33492;DHT22;20010;51.488;7.232;2022-09-03T16:00:13;26.50;74.20
33492;DHT22;20010;51.488;7.232;2022-09-03T16:03:10;26.40;75.50
33492;DHT22;20010;51.488;7.232;2022-09-03T16:09:27;26.10;74.90
33492;DHT22;20010;51.488;7.232;2022-09-03T16:15:24;25.90;75.90
33492;DHT22;20010;51.488;7.232;2022-09-03T16:27:25;25.30;77.60
33492;DHT22;20010;51.488;7.232;2022-09-03T16:35:59;25.10;79.20
33492;DHT22;20010;51.488;7.232;2022-09-03T16:48:18;24.90;79.90
33492;DHT22;20010;51.488;7.232;2022-09-03T17:04:50;24.70;80.60
33492;DHT22;20010;51.488;7.232;2022-09-03T17:12:43;24.60;81.30
33492;DHT22;20010;51.488;7.232;2022-09-03T17:18:21;24.40;82.80
33492;DHT22;20010;51.488;7.232;2022-09-03T17:21:17;24.40;83.80
33492;DHT22;20010;51.488;7.232;2022-09-03T17:24:10;24.30;84.70
33492;DHT22;20010;51.488;7.232;2022-09-03T17:41:54;23.50;90.50
33492;DHT22;20010;51.488;7.232;2022-09-03T17:50:25;23.20;91.50
33492;DHT22;20010;51.488;7.232;2022-09-03T17:53:16;23.10;91.80
33492;DHT22;20010;51.488;7.232;2022-09-03T17:55:53;23.10;92.10
33492;DHT22;20010;51.488;7.232;2022-09-03T17:58:42;23.00;92.10
33492;DHT22;20010;51.488;7.232;2022-09-03T18:01:25;23.00;92.30
33492;DHT22;20010;51.488;7.232;2022-09-03T18:04:33;23.00;92.30
33492;DHT22;20010;51.488;7.232;2022-09-03T18:09:51;22.90;92.60
33492;DHT22;20010;51.488;7.232;2022-09-03T18:12:42;22.80;92.90
33492;DHT22;20010;51.488;7.232;2022-09-03T18:16:12;22.80;92.90
33492;DHT22;20010;51.488;7.232;2022-09-03T18:18:49;22.80;93.10
33492;DHT22;20010;51.488;7.232;2022-09-03T18:21:21;22.80;93.10
33492;DHT22;20010;51.488;7.232;2022-09-03T18:27:42;22.70;93.30
33492;DHT22;20010;51.488;7.232;2022-09-03T18:30:29;22.70;93.60
33492;DHT22;20010;51.488;7.232;2022-09-03T18:33:24;22.70;93.40
33492;DHT22;20010;51.488;7.232;2022-09-03T18:36:11;22.60;93.60
33492;DHT22;20010;51.488;7.232;2022-09-03T18:39:25;22.50;93.50
33492;DHT22;20010;51.488;7.232;2022-09-03T18:42:56;22.50;93.60
33492;DHT22;20010;51.488;7.232;2022-09-03T18:46:04;22.50;93.90
33492;DHT22;20010;51.488;7.232;2022-09-03T18:49:34;22.40;94.20
33492;DHT22;20010;51.488;7.232;2022-09-03T18:59:21;22.20;94.30
33492;DHT22;20010;51.488;7.232;2022-09-03T19:02:28;22.20;95.00
33492;DHT22;20010;51.488;7.232;2022-09-03T19:05:18;22.00;96.00
33492;DHT22;20010;51.488;7.232;2022-09-03T19:08:19;21.90;96.80
33492;DHT22;20010;51.488;7.232;2022-09-03T19:11:29;21.70;98.00
33492;DHT22;20010;51.488;7.232;2022-09-03T19:20:36;21.50;99.90
33492;DHT22;20010;51.488;7.232;2022-09-03T19:23:25;21.40;99.90
33492;DHT22;20010;51.488;7.232;2022-09-03T19:26:48;21.30;99.90
33492;DHT22;20010;51.488;7.232;2022-09-03T19:52:53;20.30;99.90
33492;DHT22;20010;51.488;7.232;2022-09-03T19:55:47;20.30;99.90
33492;DHT22;20010;51.488;7.232;2022-09-03T19:58:35;20.20;99.90
33492;DHT22;20010;51.488;7.232;2022-09-03T20:01:30;20.20;99.90
33492;DHT22;20010;51.488;7.232;2022-09-03T20:04:22;20.10;99.90
33492;DHT22;20010;51.488;7.232;2022-09-03T20:07:11;20.00;99.90
33492;DHT22;20010;51.488;7.232;2022-09-03T20:10:02;19.90;99.90
33492;DHT22;20010;51.488;7.232;2022-09-03T20:12:57;19.90;99.90
33492;DHT22;20010;51.488;7.232;2022-09-03T20:30:21;19.60;99.90
33492;DHT22;20010;51.488;7.232;2022-09-03T20:38:49;19.50;99.90
33492;DHT22;20010;51.488;7.232;2022-09-03T20:42:53;19.50;99.90
33492;DHT22;20010;51.488;7.232;2022-09-03T20:45:12;19.50;99.90
33492;DHT22;20010;51.488;7.232;2022-09-03T20:47:55;19.50;99.90
33492;DHT22;20010;51.488;7.232;2022-09-03T20:50:56;19.40;99.90
33492;DHT22;20010;51.488;7.232;2022-09-03T21:07:28;19.30;99.90
33492;DHT22;20010;51.488;7.232;2022-09-03T21:16:06;19.20;99.90
33492;DHT22;20010;51.488;7.232;2022-09-03T21:18:53;19.20;99.90
33492;DHT22;20010;51.488;7.232;2022-09-03T21:21:51;19.20;99.90
33492;DHT22;20010;51.488;7.232;2022-09-03T21:24:57;19.10;99.90
33492;DHT22;20010;51.488;7.232;2022-09-03T21:27:42;19.10;99.90
33492;DHT22;20010;51.488;7.232;2022-09-03T21:30:19;19.10;99.90
33492;DHT22;20010;51.488;7.232;2022-09-03T21:33:19;19.00;99.90
33492;DHT22;20010;51.488;7.232;2022-09-03T21:35:50;19.00;99.90
33492;DHT22;20010;51.488;7.232;2022-09-03T21:38:27;19.00;99.90
33492;DHT22;20010;51.488;7.232;2022-09-03T21:43:56;19.00;99.90
33492;DHT22;20010;51.488;7.232;2022-09-03T21:46:31;18.90;99.90
33492;DHT22;20010;51.488;7.232;2022-09-03T21:49:09;18.90;99.90
33492;DHT22;20010;51.488;7.232;2022-09-03T21:51:56;18.90;99.90
33492;DHT22;20010;51.488;7.232;2022-09-03T21:54:31;18.90;99.90
33492;DHT22;20010;51.488;7.232;2022-09-03T22:04:49;18.90;99.90
33492;DHT22;20010;51.488;7.232;2022-09-03T22:07:42;18.90;99.90
33492;DHT22;20010;51.488;7.232;2022-09-03T22:10:48;18.80;99.90
33492;DHT22;20010;51.488;7.232;2022-09-03T22:14:33;18.80;99.90
33492;DHT22;20010;51.488;7.232;2022-09-03T22:16:54;18.80;99.90
33492;DHT22;20010;51.488;7.232;2022-09-03T22:19:26;18.80;99.90
33492;DHT22;20010;51.488;7.232;2022-09-03T22:21:59;18.80;99.90
33492;DHT22;20010;51.488;7.232;2022-09-03T22:24:41;18.80;99.90
33492;DHT22;20010;51.488;7.232;2022-09-03T22:27:35;18.80;99.90
33492;DHT22;20010;51.488;7.232;2022-09-03T22:30:14;18.80;99.90
33492;DHT22;20010;51.488;7.232;2022-09-03T22:33:21;18.70;99.90
33492;DHT22;20010;51.488;7.232;2022-09-03T22:35:59;18.70;99.90
33492;DHT22;20010;51.488;7.232;2022-09-03T22:50:14;18.60;99.90
33492;DHT22;20010;51.488;7.232;2022-09-03T22:55:24;18.60;99.90